Time;durP1;ratioP1;P1;durP2;ratioP2;P2;SDS_P1;SDS_P2;PMS_P1;PMS_P2;Temp;Humidity;BMP_temperature;BMP_pressure;BME280_temperature;BME280_humidity;BME280_pressure;Samples;Min_cycle;Max_cycle;Signal;HPM_P1;HPM_P2
2022/06/21 00:00:37;;;;;;;;;;;;;;;;;;5027595;28;19917;-79
2022/06/21 00:03:03;;;;;;;;;;;;;;;;;;5030320;28;20365;-79
2022/06/21 00:05:31;;;;;;;;;;;;;;;;;;5031330;28;20366;-79
2022/06/21 00:07:57;;;;;;;;;;;;;;;;;;5037802;28;19913;-79
2022/06/21 00:10:23;;;;;;;;;;;;;;;;;;5031147;28;19920;-79
2022/06/21 00:12:49;;;;;;;;;;;;;;;;;;5022374;28;20048;-78
2022/06/21 00:15:15;;;;;;;;;;;;;;;;;;5031643;28;20261;-78
2022/06/21 00:17:41;;;;;;;;;;;;;;;;;;5021142;28;19913;-78
2022/06/21 00:20:07;;;;;;;;;;;;;;;;;;5028158;28;19920;-79
2022/06/21 00:22:33;;;;;;;;;;;;;;;;;;5023681;28;19917;-78
2022/06/21 00:24:59;;;;;;;;;;;;;;;;;;5037095;28;20001;-79
2022/06/21 00:27:25;;;;;;;;;;;;;;;;;;5039028;28;19924;-79
2022/06/21 00:29:51;;;;;;;;;;;;;;;;;;5034259;28;20305;-79
2022/06/21 00:32:16;;;;;;;;;;;;;;;;;;5032389;28;19951;-79
2022/06/21 00:34:42;;;;;;;;;;;;;;;;;;5034501;28;20277;-79
2022/06/21 00:37:08;;;;;;;;;;;;;;;;;;5039117;28;19956;-79
2022/06/21 00:39:34;;;;;;;;;;;;;;;;;;5034335;28;20442;-79
2022/06/21 00:42:00;;;;;;;;;;;;;;;;;;5039182;28;19913;-78
2022/06/21 00:44:26;;;;;;;;;;;;;;;;;;5029291;28;20392;-79
2022/06/21 00:46:52;;;;;;;;;;;;;;;;;;5042662;28;19959;-79
2022/06/21 00:49:18;;;;;;;;;;;;;;;;;;5042737;28;20373;-78
2022/06/21 00:51:44;;;;;;;;;;;;;;;;;;5037132;28;20016;-79
2022/06/21 00:54:09;;;;;;;;;;;;;;;;;;5046107;28;19920;-79
2022/06/21 00:56:36;;;;;;;;;;;;;;;;;;5037576;28;19913;-78
2022/06/21 00:59:02;;;;;;;;;;;;;;;;;;5035685;28;19954;-79
2022/06/21 01:01:27;;;;;;;;;;;;;;;;;;5035420;28;20003;-79
2022/06/21 01:03:53;;;;;;;;;;;;;;;;;;5033116;28;19914;-78
2022/06/21 01:06:19;;;;;;;;;;;;;;;;;;5033333;28;19916;-78
2022/06/21 01:08:45;;;;;;;;;;;;;;;;;;5038925;28;19947;-78
2022/06/21 01:11:11;;;;;;;;;;;;;;;;;;5033640;28;19917;-78
2022/06/21 01:13:37;;;;;;;;;;;;;;;;;;5034391;28;20043;-78
2022/06/21 01:16:03;;;;;;;;;;;;;;;;;;5032473;28;19917;-79
2022/06/21 01:18:29;;;;;;;;;;;;;;;;;;5035863;28;20668;-79
2022/06/21 01:20:55;;;;;;;;;;;;;;;;;;5033811;28;19948;-78
2022/06/21 01:23:20;;;;;;;;;;;;;;;;;;5036635;28;20363;-78
2022/06/21 01:25:46;;;;;;;;;;;;;;;;;;5034759;28;19959;-78
2022/06/21 01:28:12;;;;;;;;;;;;;;;;;;5035005;28;20365;-80
2022/06/21 01:30:38;;;;;;;;;;;;;;;;;;5021982;28;19920;-78
2022/06/21 01:33:04;;;;;;;;;;;;;;;;;;5038961;28;19921;-80
2022/06/21 01:35:30;;;;;;;;;;;;;;;;;;5034295;28;19921;-78
2022/06/21 01:37:56;;;;;;;;;;;;;;;;;;5034177;28;19914;-78
2022/06/21 01:40:25;;;;;;;;;;;;;;;;;;5033023;28;19913;-78
2022/06/21 01:42:51;;;;;;;;;;;;;;;;;;5037749;28;19960;-78
2022/06/21 01:45:16;;;;;;;;;;;;;;;;;;5029262;28;19925;-78
2022/06/21 01:47:42;;;;;;;;;;;;;;;;;;5034489;28;19917;-80
2022/06/21 01:50:08;;;;;;;;;;;;;;;;;;5036613;28;19921;-78
2022/06/21 01:52:34;;;;;;;;;;;;;;;;;;5034009;28;20016;-78
2022/06/21 01:55:00;;;;;;;;;;;;;;;;;;5036002;28;19956;-78
2022/06/21 01:57:26;;;;;;;;;;;;;;;;;;5040746;28;19913;-79
2022/06/21 01:59:52;;;;;;;;;;;;;;;;;;5033431;28;19935;-79
2022/06/21 02:02:18;;;;;;;;;;;;;;;;;;5023828;28;20365;-78
2022/06/21 02:04:43;;;;;;;;;;;;;;;;;;5036058;28;19917;-78
2022/06/21 02:07:09;;;;;;;;;;;;;;;;;;5030281;28;20364;-79
2022/06/21 02:09:35;;;;;;;;;;;;;;;;;;5035856;28;19963;-77
2022/06/21 02:12:01;;;;;;;;;;;;;;;;;;5030750;28;19920;-79
2022/06/21 02:14:30;;;;;;;;;;;;;;;;;;5027654;28;19921;-78
2022/06/21 02:16:56;;;;;;;;;;;;;;;;;;5031251;28;19913;-78
2022/06/21 02:19:22;;;;;;;;;;;;;;;;;;5028765;28;20437;-78
2022/06/21 02:21:48;;;;;;;;;;;;;;;;;;5034433;28;19913;-79
2022/06/21 02:24:14;;;;;;;;;;;;;;;;;;5030627;28;20407;-78
2022/06/21 02:26:39;;;;;;;;;;;;;;;;;;5034063;28;19976;-79
2022/06/21 02:29:05;;;;;;;;;;;;;;;;;;5028436;28;19939;-79
2022/06/21 02:31:31;;;;;;;;;;;;;;;;;;5031176;28;20412;-78
2022/06/21 02:33:57;;;;;;;;;;;;;;;;;;5031883;28;19923;-81
2022/06/21 02:36:23;;;;;;;;;;;;;;;;;;5032770;28;19913;-77
2022/06/21 02:38:49;;;;;;;;;;;;;;;;;;5027691;28;19917;-79
2022/06/21 02:41:15;;;;;;;;;;;;;;;;;;5035302;28;19971;-80
2022/06/21 02:43:41;;;;;;;;;;;;;;;;;;5035902;28;20289;-78
2022/06/21 02:46:08;;;;;;;;;;;;;;;;;;5026044;28;19929;-78
2022/06/21 02:48:34;;;;;;;;;;;;;;;;;;5029865;28;19921;-78
2022/06/21 02:51:01;;;;;;;;;;;;;;;;;;5024370;28;20400;-78
2022/06/21 02:53:27;;;;;;;;;;;;;;;;;;5033578;28;19921;-79
2022/06/21 02:55:52;;;;;;;;;;;;;;;;;;5024965;28;19913;-80
2022/06/21 02:58:18;;;;;;;;;;;;;;;;;;5030207;28;20014;-83
2022/06/21 03:00:44;;;;;;;;;;;;;;;;;;5023351;28;20289;-77
2022/06/21 03:03:11;;;;;;;;;;;;;;;;;;5030666;28;19920;-78
2022/06/21 03:05:37;;;;;;;;;;;;;;;;;;5032827;28;19952;-78
2022/06/21 03:08:03;;;;;;;;;;;;;;;;;;5033465;28;19963;-78
2022/06/21 03:10:29;;;;;;;;;;;;;;;;;;5035038;28;20288;-78
2022/06/21 03:12:55;;;;;;;;;;;;;;;;;;5032224;28;20017;-79
2022/06/21 03:15:21;;;;;;;;;;;;;;;;;;5032985;28;19924;-78
2022/06/21 03:17:47;;;;;;;;;;;;;;;;;;5034407;28;19936;-79
2022/06/21 03:20:13;;;;;;;;;;;;;;;;;;5033279;28;19913;-79
2022/06/21 03:22:39;;;;;;;;;;;;;;;;;;5032763;28;20570;-80
2022/06/21 03:25:05;;;;;;;;;;;;;;;;;;5029453;28;19921;-80
2022/06/21 03:27:31;;;;;;;;;;;;;;;;;;5021878;28;19968;-78
2022/06/21 03:29:57;;;;;;;;;;;;;;;;;;5029926;28;19914;-78
2022/06/21 03:32:22;;;;;;;;;;;;;;;;;;5030053;28;19928;-79
2022/06/21 03:34:50;;;;;;;;;;;;;;;;;;5024540;28;19920;-78
2022/06/21 03:37:16;;;;;;;;;;;;;;;;;;5033119;28;19909;-79
2022/06/21 03:42:26;;;;;;;;;;;;;;;;;;5025337;28;19920;-78
2022/06/21 03:44:54;;;;;;;;;;;;;;;;;;5030507;28;19939;-78
2022/06/21 03:47:20;;;;;;;;;;;;;;;;;;5027092;28;19917;-78
2022/06/21 03:49:46;;;;;;;;;;;;;;;;;;5029757;28;20524;-78
2022/06/21 03:52:13;;;;;;;;;;;;;;;;;;5024358;28;21345;-78
2022/06/21 03:54:39;;;;;;;;;;;;;;;;;;5029879;28;19921;-77
2022/06/21 03:57:05;;;;;;;;;;;;;;;;;;5029322;28;20020;-77
2022/06/21 03:59:31;;;;;;;;;;;;;;;;;;5026992;28;19909;-78
2022/06/21 04:01:57;;;;;;;;;;;;;;;;;;5027830;28;19979;-78
2022/06/21 04:04:23;;;;;;;;;;;;;;;;;;5028729;28;19917;-79
2022/06/21 04:06:49;;;;;;;;;;;;;;;;;;5029130;28;19920;-78
2022/06/21 04:09:15;;;;;;;;;;;;;;;;;;5028793;28;19927;-77
2022/06/21 04:11:40;;;;;;;;;;;;;;;;;;5029875;28;19947;-78
2022/06/21 04:14:06;;;;;;;;;;;;;;;;;;5024499;28;19971;-79
2022/06/21 04:16:32;;;;;;;;;;;;;;;;;;5021098;28;19924;-78
2022/06/21 04:18:58;;;;;;;;;;;;;;;;;;5026423;28;19968;-79
2022/06/21 04:21:24;;;;;;;;;;;;;;;;;;5037645;28;20362;-78
2022/06/21 04:23:50;;;;;;;;;;;;;;;;;;5039112;28;20396;-79
2022/06/21 04:26:16;;;;;;;;;;;;;;;;;;5032132;28;20384;-79
2022/06/21 04:28:42;;;;;;;;;;;;;;;;;;5032929;28;19909;-78
2022/06/21 04:31:08;;;;;;;;;;;;;;;;;;5027895;28;20007;-78
2022/06/21 04:33:34;;;;;;;;;;;;;;;;;;5020275;28;19917;-78
2022/06/21 04:36:00;;;;;;;;;;;;;;;;;;5026317;28;19917;-78
2022/06/21 04:38:26;;;;;;;;;;;;;;;;;;5031478;28;19967;-77
2022/06/21 04:40:51;;;;;;;;;;;;;;;;;;5028971;28;19917;-78
2022/06/21 04:43:17;;;;;;;;;;;;;;;;;;5031938;28;20340;-78
2022/06/21 04:45:43;;;;;;;;;;;;;;;;;;5031062;28;20019;-79
2022/06/21 04:48:09;;;;;;;;;;;;;;;;;;5034663;28;19940;-79
2022/06/21 04:50:35;;;;;;;;;;;;;;;;;;5024577;28;20012;-79
2022/06/21 04:53:01;;;;;;;;;;;;;;;;;;5036633;28;19956;-79
2022/06/21 04:55:27;;;;;;;;;;;;;;;;;;5036444;28;19917;-79
2022/06/21 04:57:53;;;;;;;;;;;;;;;;;;5038247;28;19949;-79
2022/06/21 05:00:19;;;;;;;;;;;;;;;;;;5030721;28;19917;-79
2022/06/21 05:02:46;;;;;;;;;;;;;;;;;;5028980;28;19917;-80
2022/06/21 05:05:12;;;;;;;;;;;;;;;;;;5028380;28;19949;-78
2022/06/21 05:07:38;;;;;;;;;;;;;;;;;;5029748;28;19924;-80
2022/06/21 05:10:04;;;;;;;;;;;;;;;;;;5024601;28;19913;-79
2022/06/21 05:12:31;;;;;;;;;;;;;;;;;;5026210;28;19936;-78
2022/06/21 05:14:56;;;;;;;;;;;;;;;;;;5030951;28;19927;-78
2022/06/21 05:17:22;;;;;;;;;;;;;;;;;;5027320;28;19984;-79
2022/06/21 05:19:48;;;;;;;;;;;;;;;;;;5031907;28;19913;-79
2022/06/21 05:22:14;;;;;;;;;;;;;;;;;;5032536;28;20376;-77
2022/06/21 05:24:40;;;;;;;;;;;;;;;;;;5025383;28;19909;-80
2022/06/21 05:27:06;;;;;;;;;;;;;;;;;;5031604;28;20428;-77
2022/06/21 05:29:32;;;;;;;;;;;;;;;;;;5029116;28;19917;-77
2022/06/21 05:31:58;;;;;;;;;;;;;;;;;;5013323;28;19941;-77
2022/06/21 05:34:24;;;;;;;;;;;;;;;;;;5016689;28;19909;-77
2022/06/21 05:36:50;;;;;;;;;;;;;;;;;;5015927;28;20301;-77
2022/06/21 05:39:20;;;;;;;;;;;;;;;;;;5015839;28;19949;-79
2022/06/21 05:41:46;;;;;;;;;;;;;;;;;;5017469;28;19946;-79
2022/06/21 05:44:13;;;;;;;;;;;;;;;;;;5016400;28;19964;-77
2022/06/21 05:46:39;;;;;;;;;;;;;;;;;;5015769;28;19948;-79
2022/06/21 05:49:08;;;;;;;;;;;;;;;;;;5013955;28;19920;-78
2022/06/21 05:51:34;;;;;;;;;;;;;;;;;;5014585;28;19916;-79
2022/06/21 05:54:00;;;;;;;;;;;;;;;;;;5013944;28;20004;-78
2022/06/21 05:56:26;;;;;;;;;;;;;;;;;;5013657;28;20429;-78
2022/06/21 05:58:52;;;;;;;;;;;;;;;;;;5015313;28;19917;-79
2022/06/21 06:01:18;;;;;;;;;;;;;;;;;;5015625;28;19913;-78
2022/06/21 06:03:44;;;;;;;;;;;;;;;;;;5014828;28;20279;-79
2022/06/21 06:06:10;;;;;;;;;;;;;;;;;;5015958;28;20296;-79
2022/06/21 06:08:36;;;;;;;;;;;;;;;;;;5018262;28;19963;-79
2022/06/21 06:11:02;;;;;;;;;;;;;;;;;;5032516;28;19913;-78
2022/06/21 06:13:28;;;;;;;;;;;;;;;;;;5032409;28;20075;-79
2022/06/21 06:15:54;;;;;;;;;;;;;;;;;;5026099;28;20418;-79
2022/06/21 06:18:21;;;;;;;;;;;;;;;;;;5033575;28;20187;-78
2022/06/21 06:20:47;;;;;;;;;;;;;;;;;;5031828;28;20285;-79
2022/06/21 06:23:12;;;;;;;;;;;;;;;;;;5032443;28;19920;-78
2022/06/21 06:25:39;;;;;;;;;;;;;;;;;;5033882;28;19909;-80
2022/06/21 06:28:05;;;;;;;;;;;;;;;;;;5032998;28;20439;-79
2022/06/21 06:30:31;;;;;;;;;;;;;;;;;;5033191;28;20004;-80
2022/06/21 06:32:57;;;;;;;;;;;;;;;;;;5028591;28;20019;-77
2022/06/21 06:35:23;;;;;;;;;;;;;;;;;;5035144;28;19917;-78
2022/06/21 06:37:48;;;;;;;;;;;;;;;;;;5035114;28;19909;-80
2022/06/21 06:40:14;;;;;;;;;;;;;;;;;;5035512;28;20008;-78
2022/06/21 06:42:40;;;;;;;;;;;;;;;;;;5033997;28;20066;-80
2022/06/21 06:45:06;;;;;;;;;;;;;;;;;;5033715;28;19909;-76
2022/06/21 06:47:32;;;;;;;;;;;;;;;;;;5034103;28;20373;-77
2022/06/21 06:49:58;;;;;;;;;;;;;;;;;;5024553;28;19909;-77
2022/06/21 06:52:24;;;;;;;;;;;;;;;;;;5026370;28;19926;-80
2022/06/21 06:54:50;;;;;;;;;;;;;;;;;;5018857;28;20446;-78
2022/06/21 06:57:16;;;;;;;;;;;;;;;;;;5030556;28;19913;-78
2022/06/21 06:59:42;;;;;;;;;;;;;;;;;;5030047;28;19909;-78
2022/06/21 07:02:07;;;;;;;;;;;;;;;;;;5030002;28;20442;-77
2022/06/21 07:04:33;;;;;;;;;;;;;;;;;;5031970;28;19916;-79
2022/06/21 07:06:59;;;;;;;;;;;;;;;;;;5031140;28;19932;-79
2022/06/21 07:09:25;;;;;;;;;;;;;;;;;;5029741;28;19921;-78
2022/06/21 07:11:51;;;;;;;;;;;;;;;;;;5029355;28;20295;-79
2022/06/21 07:14:17;;;;;;;;;;;;;;;;;;5024701;28;19940;-78
2022/06/21 07:16:43;;;;;;;;;;;;;;;;;;5029848;28;19915;-79
2022/06/21 07:19:09;;;;;;;;;;;;;;;;;;5031862;28;20284;-79
2022/06/21 07:21:34;;;;;;;;;;;;;;;;;;5032601;28;20015;-78
2022/06/21 07:24:01;;;;;;;;;;;;;;;;;;5031298;28;19913;-78
2022/06/21 07:26:27;;;;;;;;;;;;;;;;;;5029681;28;19917;-78
2022/06/21 07:28:53;;;;;;;;;;;;;;;;;;5033969;28;20442;-79
2022/06/21 07:31:19;;;;;;;;;;;;;;;;;;5035969;28;20288;-79
2022/06/21 07:33:45;;;;;;;;;;;;;;;;;;5036116;28;19917;-80
2022/06/21 07:36:11;;;;;;;;;;;;;;;;;;5035526;28;19917;-80
2022/06/21 07:38:36;;;;;;;;;;;;;;;;;;5035008;28;20387;-79
2022/06/21 07:41:02;;;;;;;;;;;;;;;;;;5052922;28;19963;-79
2022/06/21 07:43:28;;;;;;;;;;;;;;;;;;5046049;28;20438;-79
2022/06/21 07:45:54;;;;;;;;;;;;;;;;;;5036211;28;19909;-79
2022/06/21 07:48:20;;;;;;;;;;;;;;;;;;5032694;28;20266;-79
2022/06/21 07:50:46;;;;;;;;;;;;;;;;;;5034853;28;19909;-79
2022/06/21 07:53:12;;;;;;;;;;;;;;;;;;5034981;28;20005;-79
2022/06/21 07:55:38;;;;;;;;;;;;;;;;;;5045373;28;20326;-79
2022/06/21 07:58:04;;;;;;;;;;;;;;;;;;5020638;28;19993;-79
2022/06/21 08:06:41;;;;;;;;;;;;;;;;;;5011455;28;19996;-80
2022/06/21 08:08:45;;;;;;;;;;;;;;;;;;5024839;28;20412;-79
2022/06/21 08:11:11;;;;;;;;;;;;;;;;;;5037266;28;19920;-80
2022/06/21 08:13:37;;;;;;;;;;;;;;;;;;5022938;28;19984;-78
2022/06/21 08:16:03;;;;;;;;;;;;;;;;;;5027343;28;19922;-79
2022/06/21 08:18:29;;;;;;;;;;;;;;;;;;5022272;28;20047;-79
2022/06/21 08:20:57;;;;;;;;;;;;;;;;;;5031675;28;19917;-78
2022/06/21 08:23:23;;;;;;;;;;;;;;;;;;5032190;28;20488;-77
2022/06/21 08:25:49;;;;;;;;;;;;;;;;;;5033605;28;19910;-80
2022/06/21 08:28:15;;;;;;;;;;;;;;;;;;5032872;28;19967;-80
2022/06/21 08:30:42;;;;;;;;;;;;;;;;;;5022849;28;19944;-80
2022/06/21 08:33:08;;;;;;;;;;;;;;;;;;5030410;28;19913;-79
2022/06/21 08:35:34;;;;;;;;;;;;;;;;;;5026749;28;19917;-81
2022/06/21 08:38:00;;;;;;;;;;;;;;;;;;5035379;28;20262;-78
2022/06/21 08:40:26;;;;;;;;;;;;;;;;;;5047099;28;19916;-79
2022/06/21 08:42:52;;;;;;;;;;;;;;;;;;5029799;28;19913;-79
2022/06/21 08:48:02;;;;;;;;;;;;;;;;;;5025451;28;19993;-79
2022/06/21 08:50:28;;;;;;;;;;;;;;;;;;5010270;28;19909;-80
2022/06/21 08:52:54;;;;;;;;;;;;;;;;;;5017901;28;19917;-79
2022/06/21 08:55:20;;;;;;;;;;;;;;;;;;5030760;28;19913;-79
2022/06/21 08:57:46;;;;;;;;;;;;;;;;;;5031100;28;20392;-79
2022/06/21 09:00:12;;;;;;;;;;;;;;;;;;5032539;28;19996;-81
2022/06/21 09:02:38;;;;;;;;;;;;;;;;;;5033818;28;19920;-79
2022/06/21 09:05:04;;;;;;;;;;;;;;;;;;5025687;28;19909;-80
2022/06/21 09:07:30;;;;;;;;;;;;;;;;;;5015483;28;19913;-83
2022/06/21 09:09:56;;;;;;;;;;;;;;;;;;5014539;28;19909;-79
2022/06/21 09:12:22;;;;;;;;;;;;;;;;;;5015311;28;19925;-80
2022/06/21 09:14:48;;;;;;;;;;;;;;;;;;5015869;28;19909;-79
2022/06/21 09:17:14;;;;;;;;;;;;;;;;;;5017578;28;19932;-80
2022/06/21 09:19:40;;;;;;;;;;;;;;;;;;5014574;28;20349;-79
2022/06/21 09:22:05;;;;;;;;;;;;;;;;;;5015491;28;19917;-78
2022/06/21 09:24:31;;;;;;;;;;;;;;;;;;5023576;28;19968;-80
2022/06/21 09:26:57;;;;;;;;;;;;;;;;;;5036547;28;20004;-79
2022/06/21 09:29:24;;;;;;;;;;;;;;;;;;5032087;28;19962;-80
2022/06/21 09:31:50;;;;;;;;;;;;;;;;;;5016323;28;20004;-79
2022/06/21 09:34:15;;;;;;;;;;;;;;;;;;5030721;28;20025;-80
2022/06/21 09:36:41;;;;;;;;;;;;;;;;;;5025498;28;20344;-80
2022/06/21 09:39:07;;;;;;;;;;;;;;;;;;5030613;28;19924;-80
2022/06/21 09:41:33;;;;;;;;;;;;;;;;;;5035537;28;20008;-79
2022/06/21 09:44:00;;;;;;;;;;;;;;;;;;5027062;28;19913;-80
2022/06/21 09:46:26;;;;;;;;;;;;;;;;;;5035498;28;20006;-80
2022/06/21 09:48:52;;;;;;;;;;;;;;;;;;5038229;28;19913;-80
2022/06/21 09:51:17;;;;;;;;;;;;;;;;;;5026277;28;20359;-79
2022/06/21 09:53:43;;;;;;;;;;;;;;;;;;5031050;28;19917;-80
2022/06/21 09:56:09;;;;;;;;;;;;;;;;;;5037793;28;19955;-80
2022/06/21 09:58:35;;;;;;;;;;;;;;;;;;5036065;28;19923;-82
2022/06/21 10:01:01;;;;;;;;;;;;;;;;;;5034879;28;19913;-80
2022/06/21 10:03:27;;;;;;;;;;;;;;;;;;5028403;28;20273;-79
2022/06/21 10:05:53;;;;;;;;;;;;;;;;;;5024823;28;19940;-80
2022/06/21 10:08:19;;;;;;;;;;;;;;;;;;5029847;28;19921;-80
2022/06/21 10:10:45;;;;;;;;;;;;;;;;;;5029015;28;19921;-80
2022/06/21 10:13:11;;;;;;;;;;;;;;;;;;5029082;28;19917;-80
2022/06/21 10:15:37;;;;;;;;;;;;;;;;;;5037891;28;19920;-82
2022/06/21 10:18:02;;;;;;;;;;;;;;;;;;5035849;28;19968;-80
2022/06/21 10:20:28;;;;;;;;;;;;;;;;;;5030519;28;19913;-80
2022/06/21 10:22:54;;;;;;;;;;;;;;;;;;5027366;28;19917;-80
2022/06/21 10:25:20;;;;;;;;;;;;;;;;;;5026858;28;19913;-80
2022/06/21 10:27:46;;;;;;;;;;;;;;;;;;5029358;28;19944;-79
2022/06/21 10:30:12;;;;;;;;;;;;;;;;;;5031062;28;19923;-80
2022/06/21 10:32:38;;;;;;;;;;;;;;;;;;5029747;28;19974;-80
2022/06/21 10:35:04;;;;;;;;;;;;;;;;;;5020556;28;19921;-78
2022/06/21 10:37:30;;;;;;;;;;;;;;;;;;5033703;28;19996;-80
2022/06/21 10:39:56;;;;;;;;;;;;;;;;;;5032678;28;19964;-81
2022/06/21 10:45:06;;;;;;;;;;;;;;;;;;5026995;28;19963;-79
2022/06/21 10:47:32;;;;;;;;;;;;;;;;;;5032273;28;19921;-80
2022/06/21 10:49:58;;;;;;;;;;;;;;;;;;5032938;28;19917;-79
2022/06/21 10:52:24;;;;;;;;;;;;;;;;;;5027113;28;19969;-82
2022/06/21 10:54:50;;;;;;;;;;;;;;;;;;5032438;28;20340;-80
2022/06/21 10:57:16;;;;;;;;;;;;;;;;;;5034674;28;20274;-80
2022/06/21 11:02:26;;;;;;;;;;;;;;;;;;5028308;28;19920;-79
2022/06/21 11:04:52;;;;;;;;;;;;;;;;;;5033562;28;19909;-80
2022/06/21 11:07:18;;;;;;;;;;;;;;;;;;5030654;28;19909;-80
2022/06/21 11:09:44;;;;;;;;;;;;;;;;;;5024446;28;20356;-81
2022/06/21 11:14:55;;;;;;;;;;;;;;;;;;5025595;28;19920;-80
2022/06/21 11:17:20;;;;;;;;;;;;;;;;;;5029371;28;19909;-80
2022/06/21 11:19:46;;;;;;;;;;;;;;;;;;5033141;28;19909;-79
2022/06/21 11:22:12;;;;;;;;;;;;;;;;;;5030066;28;19975;-85
2022/06/21 11:24:39;;;;;;;;;;;;;;;;;;5024533;28;19935;-79
2022/06/21 11:27:05;;;;;;;;;;;;;;;;;;5033680;28;19916;-80
2022/06/21 11:29:30;;;;;;;;;;;;;;;;;;5035981;28;19913;-80
2022/06/21 11:31:56;;;;;;;;;;;;;;;;;;5034430;28;19913;-81
2022/06/21 11:34:22;;;;;;;;;;;;;;;;;;5033820;28;19975;-80
2022/06/21 11:36:48;;;;;;;;;;;;;;;;;;5033873;28;19909;-79
2022/06/21 11:39:14;;;;;;;;;;;;;;;;;;5017838;28;20374;-80
2022/06/21 11:44:25;;;;;;;;;;;;;;;;;;5034719;28;19936;-79
2022/06/21 11:46:51;;;;;;;;;;;;;;;;;;5031551;28;20354;-79
2022/06/21 11:49:17;;;;;;;;;;;;;;;;;;5028449;28;19913;-78
2022/06/21 11:51:42;;;;;;;;;;;;;;;;;;5032187;28;19916;-79
2022/06/21 11:54:09;;;;;;;;;;;;;;;;;;5030824;28;19913;-79
2022/06/21 11:56:34;;;;;;;;;;;;;;;;;;5034251;28;19913;-80
2022/06/21 11:59:00;;;;;;;;;;;;;;;;;;5034404;28;20032;-79
2022/06/21 12:01:26;;;;;;;;;;;;;;;;;;5032951;28;19913;-80
2022/06/21 12:03:52;;;;;;;;;;;;;;;;;;5022506;28;20281;-80
2022/06/21 12:06:18;;;;;;;;;;;;;;;;;;5025873;28;19956;-80
2022/06/21 12:08:44;;;;;;;;;;;;;;;;;;5029120;28;19913;-79
2022/06/21 12:11:10;;;;;;;;;;;;;;;;;;5032451;28;19909;-79
2022/06/21 12:13:36;;;;;;;;;;;;;;;;;;5022200;28;20293;-81
2022/06/21 12:16:02;;;;;;;;;;;;;;;;;;5032235;28;19909;-81
2022/06/21 12:18:28;;;;;;;;;;;;;;;;;;5033105;28;19924;-79
2022/06/21 12:20:53;;;;;;;;;;;;;;;;;;5014096;28;19932;-80
2022/06/21 12:23:19;;;;;;;;;;;;;;;;;;5014999;28;19917;-81
2022/06/21 12:25:46;;;;;;;;;;;;;;;;;;5012532;28;20004;-78
2022/06/21 12:28:12;;;;;;;;;;;;;;;;;;5013128;28;20012;-80
2022/06/21 12:30:39;;;;;;;;;;;;;;;;;;5032843;28;19978;-82
2022/06/21 12:33:05;;;;;;;;;;;;;;;;;;5031611;28;19913;-80
2022/06/21 12:35:31;;;;;;;;;;;;;;;;;;5030280;28;19920;-79
2022/06/21 12:37:57;;;;;;;;;;;;;;;;;;5031302;28;19932;-79
2022/06/21 12:40:23;;;;;;;;;;;;;;;;;;5031719;28;20361;-79
2022/06/21 12:42:49;;;;;;;;;;;;;;;;;;5031875;28;19963;-80
2022/06/21 12:45:15;;;;;;;;;;;;;;;;;;5029959;28;19921;-79
2022/06/21 12:47:41;;;;;;;;;;;;;;;;;;5011169;28;20013;-79
2022/06/21 12:50:07;;;;;;;;;;;;;;;;;;5010610;28;19964;-79
2022/06/21 12:52:33;;;;;;;;;;;;;;;;;;5015623;28;20047;-80
2022/06/21 12:54:59;;;;;;;;;;;;;;;;;;5016365;28;19909;-80
2022/06/21 12:57:25;;;;;;;;;;;;;;;;;;5015487;28;20281;-79
2022/06/21 12:59:51;;;;;;;;;;;;;;;;;;5015345;28;19913;-80
2022/06/21 13:02:17;;;;;;;;;;;;;;;;;;5018078;28;19909;-80
2022/06/21 13:04:42;;;;;;;;;;;;;;;;;;5017639;28;19952;-80
2022/06/21 13:07:08;;;;;;;;;;;;;;;;;;5018068;28;19916;-80
2022/06/21 13:09:34;;;;;;;;;;;;;;;;;;5034921;28;19909;-79
2022/06/21 13:12:00;;;;;;;;;;;;;;;;;;5034396;28;19955;-79
2022/06/21 13:14:26;;;;;;;;;;;;;;;;;;5031484;28;20369;-79
2022/06/21 13:16:52;;;;;;;;;;;;;;;;;;5031985;28;19909;-80
2022/06/21 13:19:18;;;;;;;;;;;;;;;;;;5032101;28;19916;-80
2022/06/21 13:21:44;;;;;;;;;;;;;;;;;;5032040;28;19932;-80
2022/06/21 13:24:10;;;;;;;;;;;;;;;;;;5031997;28;20400;-80
2022/06/21 13:26:36;;;;;;;;;;;;;;;;;;5036580;28;20007;-81
2022/06/21 13:29:01;;;;;;;;;;;;;;;;;;5054668;28;19916;-79
2022/06/21 13:31:27;;;;;;;;;;;;;;;;;;5054712;28;19913;-79
2022/06/21 13:33:53;;;;;;;;;;;;;;;;;;5055497;28;19913;-80
2022/06/21 13:36:19;;;;;;;;;;;;;;;;;;5053374;28;20004;-80
2022/06/21 13:38:45;;;;;;;;;;;;;;;;;;5012733;28;20447;-80
2022/06/21 13:42:37;;;;;;;;;;;;;;;;;;5013683;28;19910;-80
2022/06/21 13:43:57;;;;;;;;;;;;;;;;;;5015626;28;19917;-81
2022/06/21 13:46:24;;;;;;;;;;;;;;;;;;5053051;28;20377;-81
2022/06/21 13:48:50;;;;;;;;;;;;;;;;;;5053731;28;20291;-80
2022/06/21 13:51:17;;;;;;;;;;;;;;;;;;5052803;28;19924;-82
2022/06/21 13:53:42;;;;;;;;;;;;;;;;;;5046134;28;19913;-81
2022/06/21 13:56:08;;;;;;;;;;;;;;;;;;5025760;28;19936;-81
2022/06/21 13:58:37;;;;;;;;;;;;;;;;;;5059693;28;20373;-81
2022/06/21 14:01:03;;;;;;;;;;;;;;;;;;5058224;28;19909;-80
2022/06/21 14:03:29;;;;;;;;;;;;;;;;;;5058264;28;19966;-81
2022/06/21 14:05:54;;;;;;;;;;;;;;;;;;5054224;28;20179;-81
2022/06/21 14:08:20;;;;;;;;;;;;;;;;;;5036004;28;19910;-79
2022/06/21 14:10:46;;;;;;;;;;;;;;;;;;5035467;28;19936;-81
2022/06/21 14:13:12;;;;;;;;;;;;;;;;;;5030828;28;19925;-81
2022/06/21 14:15:39;;;;;;;;;;;;;;;;;;5037929;28;19965;-81
2022/06/21 14:18:05;;;;;;;;;;;;;;;;;;5037462;28;20383;-80
2022/06/21 14:20:31;;;;;;;;;;;;;;;;;;5035137;28;19960;-80
2022/06/21 14:22:57;;;;;;;;;;;;;;;;;;5037011;28;19909;-80
2022/06/21 14:25:23;;;;;;;;;;;;;;;;;;5037155;28;19921;-81
2022/06/21 14:27:49;;;;;;;;;;;;;;;;;;5032225;28;19909;-81
2022/06/21 14:30:15;;;;;;;;;;;;;;;;;;5024445;28;20389;-81
2022/06/21 14:32:41;;;;;;;;;;;;;;;;;;5037081;28;19919;-80
2022/06/21 14:35:07;;;;;;;;;;;;;;;;;;5036276;28;20365;-81
2022/06/21 14:37:33;;;;;;;;;;;;;;;;;;5036495;28;19913;-81
2022/06/21 14:39:59;;;;;;;;;;;;;;;;;;5035577;28;19931;-81
2022/06/21 14:42:24;;;;;;;;;;;;;;;;;;5037070;28;20345;-81
2022/06/21 14:44:50;;;;;;;;;;;;;;;;;;5033060;28;19921;-80
2022/06/21 14:47:16;;;;;;;;;;;;;;;;;;5058377;28;20377;-81
2022/06/21 14:49:42;;;;;;;;;;;;;;;;;;5057610;28;20018;-80
2022/06/21 14:52:08;;;;;;;;;;;;;;;;;;5058920;28;19936;-83
2022/06/21 14:54:34;;;;;;;;;;;;;;;;;;5059502;28;20003;-82
2022/06/21 14:57:00;;;;;;;;;;;;;;;;;;5059657;28;20382;-81
2022/06/21 14:59:26;;;;;;;;;;;;;;;;;;5058230;28;19916;-80
2022/06/21 15:01:52;;;;;;;;;;;;;;;;;;5046754;28;19920;-81
2022/06/21 15:04:18;;;;;;;;;;;;;;;;;;5020138;28;19913;-81
2022/06/21 15:06:44;;;;;;;;;;;;;;;;;;5026981;28;20388;-81
2022/06/21 15:09:09;;;;;;;;;;;;;;;;;;5037010;28;19916;-81
2022/06/21 15:11:56;;;;;;;;;;;;;;;;;;5036089;28;19920;-80
2022/06/21 15:14:22;;;;;;;;;;;;;;;;;;5036119;28;19913;-81
2022/06/21 15:16:48;;;;;;;;;;;;;;;;;;5034531;28;19915;-79
2022/06/21 15:21:58;;;;;;;;;;;;;;;;;;5016484;28;19916;-80
2022/06/21 15:24:24;;;;;;;;;;;;;;;;;;5015164;28;19913;-80
2022/06/21 15:26:50;;;;;;;;;;;;;;;;;;5014812;28;19949;-80
2022/06/21 15:29:16;;;;;;;;;;;;;;;;;;5013240;28;19917;-78
2022/06/21 15:31:42;;;;;;;;;;;;;;;;;;5012907;28;19959;-79
2022/06/21 15:34:08;;;;;;;;;;;;;;;;;;5018087;28;20365;-80
2022/06/21 15:36:34;;;;;;;;;;;;;;;;;;5026936;28;19913;-79
2022/06/21 15:39:00;;;;;;;;;;;;;;;;;;5028777;28;19939;-78
2022/06/21 15:41:26;;;;;;;;;;;;;;;;;;5026644;28;20372;-80
2022/06/21 15:43:52;;;;;;;;;;;;;;;;;;5024052;28;19955;-79
2022/06/21 15:46:18;;;;;;;;;;;;;;;;;;5022502;28;19917;-80
2022/06/21 15:51:28;;;;;;;;;;;;;;;;;;5032055;28;19967;-80
2022/06/21 15:53:54;;;;;;;;;;;;;;;;;;5035926;28;20019;-81
2022/06/21 15:56:20;;;;;;;;;;;;;;;;;;5034977;28;19916;-80
2022/06/21 15:58:46;;;;;;;;;;;;;;;;;;5034747;28;20292;-79
2022/06/21 16:01:12;;;;;;;;;;;;;;;;;;5036421;28;20296;-79
2022/06/21 16:03:38;;;;;;;;;;;;;;;;;;5035694;28;19913;-79
2022/06/21 16:06:04;;;;;;;;;;;;;;;;;;5034898;28;20393;-81
2022/06/21 16:08:30;;;;;;;;;;;;;;;;;;5034510;28;19910;-81
2022/06/21 16:10:56;;;;;;;;;;;;;;;;;;5035155;28;20027;-80
2022/06/21 16:13:22;;;;;;;;;;;;;;;;;;5033241;28;19936;-79
2022/06/21 16:15:47;;;;;;;;;;;;;;;;;;5034862;28;20260;-80
2022/06/21 16:18:13;;;;;;;;;;;;;;;;;;5033048;28;20385;-81
2022/06/21 16:20:39;;;;;;;;;;;;;;;;;;5032356;28;19916;-80
2022/06/21 16:23:05;;;;;;;;;;;;;;;;;;5034928;28;19913;-80
2022/06/21 16:25:31;;;;;;;;;;;;;;;;;;5034181;28;19909;-80
2022/06/21 16:27:57;;;;;;;;;;;;;;;;;;5031544;28;19976;-81
2022/06/21 16:30:24;;;;;;;;;;;;;;;;;;5028789;28;19967;-79
2022/06/21 16:35:34;;;;;;;;;;;;;;;;;;5027312;28;20399;-80
2022/06/21 16:38:00;;;;;;;;;;;;;;;;;;5022677;28;19917;-80
2022/06/21 16:43:10;;;;;;;;;;;;;;;;;;5030273;28;19921;-81
2022/06/21 16:45:36;;;;;;;;;;;;;;;;;;5027581;28;19917;-81
2022/06/21 16:48:02;;;;;;;;;;;;;;;;;;5026657;28;19921;-79
2022/06/21 16:50:28;;;;;;;;;;;;;;;;;;5024200;28;20427;-81
2022/06/21 16:52:54;;;;;;;;;;;;;;;;;;5026801;28;19963;-80
2022/06/21 16:55:21;;;;;;;;;;;;;;;;;;5031572;28;20318;-80
2022/06/21 16:57:47;;;;;;;;;;;;;;;;;;5027067;28;19983;-80
2022/06/21 17:00:13;;;;;;;;;;;;;;;;;;5027046;28;20377;-81
2022/06/21 17:02:39;;;;;;;;;;;;;;;;;;5016165;28;19914;-80
2022/06/21 17:05:05;;;;;;;;;;;;;;;;;;5026366;28;19960;-81
2022/06/21 17:07:31;;;;;;;;;;;;;;;;;;5022722;28;19967;-80
2022/06/21 17:10:01;;;;;;;;;;;;;;;;;;5022306;28;19925;-81